createdAt,value
2019-05-23T00:01:58.274Z,4.73
2019-05-23T00:04:28.587Z,4.23
2019-05-23T00:06:58.999Z,4.73
2019-05-23T00:09:28.141Z,4.50
2019-05-23T00:12:10.137Z,4.00
2019-05-23T00:14:44.427Z,4.27
2019-05-23T00:17:16.223Z,3.67
2019-05-23T00:19:44.793Z,4.10
2019-05-23T00:22:13.637Z,4.10
2019-05-23T00:24:43.055Z,4.97
2019-05-23T00:27:12.783Z,4.20
2019-05-23T00:29:43.295Z,4.50
2019-05-23T00:32:20.436Z,4.43
2019-05-23T00:34:49.916Z,4.57
2019-05-23T00:37:20.374Z,4.30
2019-05-23T00:39:48.938Z,4.43
2019-05-23T00:42:18.171Z,4.90
2019-05-23T00:44:47.234Z,4.47
2019-05-23T00:47:15.957Z,3.90
2019-05-23T00:49:44.551Z,4.40
2019-05-23T00:52:13.428Z,4.60
2019-05-23T00:54:42.831Z,4.47
2019-05-23T00:57:12.899Z,4.77
2019-05-23T00:59:41.622Z,4.73
2019-05-23T01:02:11.227Z,4.40
2019-05-23T01:04:40.701Z,4.77
2019-05-23T01:07:09.717Z,4.67
2019-05-23T01:09:38.762Z,5.03
2019-05-23T01:12:09.148Z,4.67
2019-05-23T01:14:38.716Z,4.77
2019-05-23T01:17:08.413Z,4.43
2019-05-23T01:19:37.036Z,5.03
2019-05-23T01:22:07.250Z,5.80
2019-05-23T01:24:37.739Z,4.57
2019-05-23T01:27:07.265Z,4.53
2019-05-23T01:29:49.686Z,5.33
2019-05-23T01:32:16.006Z,5.13
2019-05-23T01:34:45.392Z,5.10
2019-05-23T01:37:14.119Z,5.30
2019-05-23T01:39:42.643Z,4.83
2019-05-23T01:42:11.225Z,5.10
2019-05-23T01:44:40.635Z,4.57
2019-05-23T01:47:10.484Z,4.70
2019-05-23T01:49:40.752Z,4.80
2019-05-23T01:52:11.323Z,4.90
2019-05-23T01:54:43.748Z,5.87
2019-05-23T01:57:12.840Z,5.53
2019-05-23T01:59:41.699Z,5.10
2019-05-23T02:02:11.372Z,5.20
2019-05-23T02:04:40.678Z,5.77
2019-05-23T02:07:09.682Z,5.80
2019-05-23T02:09:38.413Z,5.43
2019-05-23T02:12:09.180Z,4.70
2019-05-23T02:14:38.715Z,5.40
2019-05-23T02:17:09.131Z,5.90
2019-05-23T02:19:38.063Z,5.23
2019-05-23T02:22:06.613Z,5.97
2019-05-23T02:24:35.736Z,6.73
2019-05-23T02:27:05.296Z,5.60
2019-05-23T02:29:34.094Z,5.47
2019-05-23T02:32:05.634Z,5.43
2019-05-23T02:34:34.553Z,5.53
2019-05-23T02:37:04.788Z,5.20
2019-05-23T02:39:51.420Z,6.07
2019-05-23T02:42:34.830Z,6.07
2019-05-23T02:45:05.079Z,4.80
2019-05-23T02:47:39.351Z,5.03
2019-05-23T02:50:11.962Z,5.00
2019-05-23T02:52:49.308Z,6.03
2019-05-23T02:55:23.723Z,5.77
2019-05-23T02:57:52.844Z,4.30
2019-05-23T03:00:52.676Z,4.97
2019-05-23T03:03:09.444Z,4.10
2019-05-23T03:05:38.975Z,4.40
2019-05-23T03:08:09.290Z,4.50
2019-05-23T03:10:58.583Z,4.30
2019-05-23T03:13:30.131Z,4.30
2019-05-23T03:16:00.511Z,4.70
2019-05-23T03:18:34.631Z,4.90
2019-05-23T03:21:03.898Z,4.80
2019-05-23T03:23:34.318Z,4.60
2019-05-23T03:26:24.097Z,5.03
2019-05-23T03:28:52.656Z,4.10
2019-05-23T03:31:32.140Z,5.23
2019-05-23T03:33:59.263Z,5.33
2019-05-23T03:36:28.544Z,5.77
2019-05-23T03:38:57.247Z,4.50
2019-05-23T03:41:26.455Z,4.40
2019-05-23T03:43:55.185Z,4.63
2019-05-23T03:46:28.418Z,4.80
2019-05-23T03:48:58.505Z,5.53
2019-05-23T03:51:27.129Z,7.23
2019-05-23T03:53:57.632Z,5.27
2019-05-23T03:56:27.757Z,4.40
2019-05-23T03:58:56.821Z,4.63
2019-05-23T04:01:43.993Z,5.23
2019-05-23T04:03:58.715Z,5.13
2019-05-23T04:06:27.416Z,4.73
2019-05-23T04:08:56.515Z,5.23
2019-05-23T04:11:25.695Z,5.53
2019-05-23T04:13:54.673Z,7.23
2019-05-23T04:16:23.218Z,5.50
2019-05-23T04:18:51.953Z,5.47
2019-05-23T04:21:24.660Z,5.60
2019-05-23T04:23:53.327Z,5.73
2019-05-23T04:26:22.788Z,4.93
2019-05-23T04:28:52.462Z,5.50
2019-05-23T04:31:21.746Z,6.03
2019-05-23T04:33:50.359Z,6.13
2019-05-23T04:36:19.736Z,6.13
2019-05-23T04:38:48.767Z,5.70
2019-05-23T04:41:17.599Z,5.90
2019-05-23T04:43:46.099Z,5.83
2019-05-23T04:46:15.332Z,7.53
2019-05-23T04:48:43.929Z,5.80
2019-05-23T04:51:12.451Z,6.07
2019-05-23T04:53:41.763Z,6.27
2019-05-23T04:56:10.334Z,5.97
2019-05-23T04:58:38.909Z,6.10
2019-05-23T05:01:07.930Z,5.57
2019-05-23T05:03:36.624Z,5.47
2019-05-23T05:06:05.670Z,5.50
2019-05-23T05:08:34.286Z,4.63
2019-05-23T05:11:02.942Z,4.90
2019-05-23T05:13:32.499Z,5.17
2019-05-23T05:16:01.239Z,4.70
2019-05-23T05:18:30.051Z,4.87
2019-05-23T05:20:58.673Z,4.70
2019-05-23T05:23:27.214Z,4.00
2019-05-23T05:25:55.792Z,4.40
2019-05-23T05:28:24.312Z,3.93
2019-05-23T05:30:53.307Z,3.77
2019-05-23T05:33:21.940Z,3.67
2019-05-23T05:35:50.568Z,3.80
2019-05-23T05:38:19.671Z,4.40
2019-05-23T05:40:48.275Z,4.37
2019-05-23T05:43:17.089Z,3.57
2019-05-23T05:45:45.650Z,4.00
2019-05-23T05:48:16.622Z,3.70
2019-05-23T05:50:45.423Z,3.57
2019-05-23T05:53:14.549Z,3.50
2019-05-23T05:55:43.228Z,2.93
2019-05-23T05:58:11.840Z,3.60
2019-05-23T06:00:50.627Z,3.10
2019-05-23T06:03:19.356Z,3.00
2019-05-23T06:05:58.952Z,3.20
2019-05-23T06:08:29.417Z,3.23
2019-05-23T06:10:58.331Z,2.53
2019-05-23T06:13:26.827Z,3.13
2019-05-23T06:15:55.473Z,3.20
2019-05-23T06:18:24.120Z,3.27
2019-05-23T06:20:53.243Z,3.63
2019-05-23T06:23:21.806Z,3.10
2019-05-23T06:25:50.450Z,2.93
2019-05-23T06:28:19.683Z,2.80
2019-05-23T06:30:49.699Z,2.60
2019-05-23T06:33:23.453Z,2.33
2019-05-23T06:35:49.127Z,2.30
2019-05-23T06:38:17.817Z,2.33
2019-05-23T06:40:48.185Z,2.87
2019-05-23T06:43:16.987Z,2.30
2019-05-23T06:45:45.594Z,2.23
2019-05-23T06:48:16.194Z,1.97
2019-05-23T06:50:45.350Z,2.10
2019-05-23T06:53:13.942Z,1.93
2019-05-23T06:55:42.484Z,2.57
2019-05-23T06:58:12.009Z,2.00
2019-05-23T07:00:42.556Z,2.10
2019-05-23T07:03:11.284Z,1.70
2019-05-23T07:05:40.417Z,2.50
2019-05-23T07:08:08.911Z,2.07
2019-05-23T07:10:39.543Z,1.90
2019-05-23T07:13:08.137Z,1.90
2019-05-23T07:15:37.815Z,2.10
2019-05-23T07:18:06.993Z,1.70
2019-05-23T07:20:35.763Z,1.97
2019-05-23T07:23:12.491Z,1.63
2019-05-23T07:25:41.219Z,1.50
2019-05-23T07:28:09.863Z,1.63
2019-05-23T07:30:39.223Z,1.47
2019-05-23T07:33:09.074Z,1.57
2019-05-23T07:35:37.631Z,1.77
2019-05-23T07:38:06.508Z,1.43
2019-05-23T07:40:35.559Z,1.23
2019-05-23T07:43:06.792Z,1.07
2019-05-23T07:45:46.075Z,1.50
2019-05-23T07:48:15.051Z,1.30
2019-05-23T07:50:44.497Z,1.50
2019-05-23T07:53:16.288Z,1.77
2019-05-23T07:55:46.545Z,1.23
2019-05-23T07:58:15.595Z,1.67
2019-05-23T08:00:49.009Z,1.70
2019-05-23T08:03:17.938Z,1.60
2019-05-23T08:05:46.551Z,1.70
2019-05-23T08:08:15.903Z,1.57
2019-05-23T08:10:44.602Z,1.77
2019-05-23T08:13:13.250Z,2.00
2019-05-23T08:15:42.302Z,1.77
2019-05-23T08:18:11.695Z,1.77
2019-05-23T08:20:40.299Z,2.03
2019-05-23T08:23:08.800Z,2.00
2019-05-23T08:25:37.714Z,1.80
2019-05-23T08:28:06.862Z,2.03
2019-05-23T08:30:35.415Z,2.10
2019-05-23T08:33:05.350Z,1.33
2019-05-23T08:35:34.131Z,1.50
2019-05-23T08:38:03.222Z,2.20
2019-05-23T08:40:33.401Z,1.90
2019-05-23T08:43:02.147Z,1.63
2019-05-23T08:45:30.990Z,1.73
2019-05-23T08:47:59.576Z,1.97
2019-05-23T08:50:28.813Z,2.00
2019-05-23T08:52:57.606Z,1.80
2019-05-23T08:55:27.151Z,1.60
2019-05-23T08:57:56.965Z,1.53
2019-05-23T09:00:27.653Z,1.70
2019-05-23T09:02:58.647Z,1.43
2019-05-23T09:05:34.977Z,1.60
2019-05-23T09:08:08.911Z,1.20
2019-05-23T09:10:38.302Z,1.20
2019-05-23T09:13:07.891Z,1.27
2019-05-23T09:15:37.079Z,1.30
2019-05-23T09:18:12.614Z,1.37
2019-05-23T09:20:41.336Z,1.27
2019-05-23T09:23:09.975Z,1.10
2019-05-23T09:25:38.533Z,1.10
2019-05-23T09:28:08.812Z,1.07
2019-05-23T09:30:37.906Z,1.30
2019-05-23T09:33:06.499Z,1.20
2019-05-23T09:35:36.127Z,1.03
2019-05-23T09:38:05.370Z,1.30
2019-05-23T09:40:38.497Z,1.20
2019-05-23T09:43:07.350Z,1.17
2019-05-23T09:45:35.926Z,0.93
2019-05-23T09:48:04.799Z,1.30
2019-05-23T09:50:33.436Z,1.10
2019-05-23T09:53:02.032Z,0.93
2019-05-23T09:55:31.886Z,0.90
2019-05-23T09:58:00.464Z,0.90
2019-05-23T10:00:29.490Z,1.17
2019-05-23T10:02:59.681Z,0.80
2019-05-23T10:05:42.166Z,1.20
2019-05-23T10:07:59.022Z,0.90
2019-05-23T10:10:27.974Z,0.90
2019-05-23T10:12:56.484Z,1.00
2019-05-23T10:15:29.349Z,1.20
2019-05-23T10:18:00.761Z,0.90
2019-05-23T10:20:29.927Z,1.10
2019-05-23T10:22:58.537Z,0.93
2019-05-23T10:25:27.075Z,1.00
2019-05-23T10:27:55.965Z,1.70
2019-05-23T10:30:25.053Z,1.03
2019-05-23T10:32:53.739Z,1.13
2019-05-23T10:35:24.498Z,1.30
2019-05-23T10:37:53.107Z,1.77
2019-05-23T10:40:22.098Z,1.20
2019-05-23T10:42:50.738Z,1.23
2019-05-23T10:45:19.477Z,1.40
2019-05-23T10:47:48.136Z,1.40
2019-05-23T10:50:16.711Z,0.90
2019-05-23T10:52:45.476Z,1.20
2019-05-23T10:55:14.147Z,1.10
2019-05-23T10:57:43.201Z,1.43
2019-05-23T11:00:13.905Z,1.17
2019-05-23T11:02:43.582Z,1.60
2019-05-23T11:05:14.258Z,1.50
2019-05-23T11:07:43.921Z,1.43
2019-05-23T11:10:13.131Z,1.40
2019-05-23T11:12:42.449Z,0.80
2019-05-23T11:15:11.756Z,1.20
2019-05-23T11:17:40.366Z,4.57
2019-05-23T11:20:10.763Z,1.33
2019-05-23T11:22:39.409Z,1.20
2019-05-23T11:25:10.360Z,1.30
2019-05-23T11:27:38.934Z,1.60
2019-05-23T11:30:11.190Z,1.47
2019-05-23T11:32:39.908Z,1.30
2019-05-23T11:35:09.090Z,1.60
2019-05-23T11:37:37.755Z,1.63
2019-05-23T11:40:07.624Z,1.43
2019-05-23T11:42:36.587Z,3.60
2019-05-23T11:45:07.047Z,1.47
2019-05-23T11:47:35.960Z,11.10
2019-05-23T11:50:09.451Z,11.43
2019-05-23T11:52:38.219Z,3.93
2019-05-23T11:55:09.794Z,1.60
2019-05-23T11:57:38.592Z,1.60
2019-05-23T12:00:10.036Z,1.20
2019-05-23T12:02:43.385Z,1.47
2019-05-23T12:05:20.051Z,1.70
2019-05-23T12:07:48.877Z,1.60
2019-05-23T12:10:17.750Z,1.77
2019-05-23T12:12:46.416Z,1.77
2019-05-23T12:15:16.828Z,1.47
2019-05-23T12:17:45.623Z,1.40
2019-05-23T12:20:14.567Z,1.00
2019-05-23T12:22:43.867Z,1.27
2019-05-23T12:25:21.758Z,1.70
2019-05-23T12:27:43.461Z,1.40
2019-05-23T12:30:15.004Z,1.30
2019-05-23T12:32:43.670Z,1.87
2019-05-23T12:35:12.544Z,1.63
2019-05-23T12:37:41.283Z,1.80
2019-05-23T12:40:12.528Z,1.67
2019-05-23T12:42:41.179Z,1.70
2019-05-23T12:45:10.947Z,1.60
2019-05-23T12:47:53.405Z,1.60
2019-05-23T12:50:41.682Z,1.47
2019-05-23T12:53:12.054Z,1.70
2019-05-23T12:55:40.805Z,1.90
2019-05-23T12:58:09.328Z,1.80
2019-05-23T13:00:42.416Z,1.80
2019-05-23T13:03:13.373Z,1.70
2019-05-23T13:05:42.901Z,1.70
2019-05-23T13:08:11.488Z,1.33
2019-05-23T13:10:40.388Z,1.40
2019-05-23T13:13:09.189Z,1.43
2019-05-23T13:15:37.659Z,1.87
2019-05-23T13:18:06.236Z,2.00
2019-05-23T13:20:35.132Z,2.00
2019-05-23T13:23:03.833Z,1.97
2019-05-23T13:25:32.523Z,1.93
2019-05-23T13:28:01.155Z,1.40
2019-05-23T13:30:29.736Z,2.00
2019-05-23T13:32:58.412Z,2.50
2019-05-23T13:35:28.223Z,2.07
2019-05-23T13:37:57.027Z,2.83
2019-05-23T13:40:25.877Z,1.53
2019-05-23T13:42:54.442Z,1.90
2019-05-23T13:45:23.318Z,1.43
2019-05-23T13:47:52.445Z,1.83
2019-05-23T13:50:21.454Z,1.90
2019-05-23T13:52:50.479Z,2.17
2019-05-23T13:55:19.701Z,2.20
2019-05-23T13:57:48.241Z,2.47
2019-05-23T14:00:18.293Z,1.73
2019-05-23T14:02:48.539Z,1.93
2019-05-23T14:05:19.164Z,1.60
2019-05-23T14:07:48.129Z,2.10
2019-05-23T14:10:16.815Z,2.23
2019-05-23T14:12:45.502Z,2.00
2019-05-23T14:15:16.039Z,1.80
2019-05-23T14:17:45.458Z,1.80
2019-05-23T14:20:15.962Z,2.00
2019-05-23T14:22:59.364Z,2.20
2019-05-23T14:25:29.030Z,2.03
2019-05-23T14:28:07.976Z,2.00
2019-05-23T14:30:38.274Z,2.40
2019-05-23T14:33:24.333Z,2.73
2019-05-23T14:35:57.765Z,2.37
2019-05-23T14:38:31.392Z,1.87
2019-05-23T14:40:58.362Z,1.83
2019-05-23T14:43:28.086Z,1.90
2019-05-23T14:46:04.140Z,1.80
2019-05-23T14:48:44.109Z,1.50
2019-05-23T14:51:14.341Z,1.60
2019-05-23T14:53:56.917Z,1.70
2019-05-23T14:56:27.149Z,1.73
2019-05-23T14:58:55.658Z,1.53
2019-05-23T15:01:26.095Z,1.90
2019-05-23T15:03:55.319Z,1.43
2019-05-23T15:06:24.025Z,1.47
2019-05-23T15:08:52.838Z,1.80
2019-05-23T15:11:21.765Z,1.57
2019-05-23T15:13:50.777Z,1.70
2019-05-23T15:16:20.066Z,1.63
2019-05-23T15:18:48.675Z,1.57
2019-05-23T15:21:17.604Z,1.70
2019-05-23T15:23:46.210Z,1.57
2019-05-23T15:26:22.873Z,1.43
2019-05-23T15:28:45.376Z,1.67
2019-05-23T15:31:15.701Z,1.57
2019-05-23T15:33:44.267Z,1.40
2019-05-23T15:36:13.051Z,1.60
2019-05-23T15:38:41.602Z,1.50
2019-05-23T15:41:10.389Z,1.30
2019-05-23T15:43:38.923Z,1.20
2019-05-23T15:46:07.510Z,1.60
2019-05-23T15:48:36.090Z,1.50
2019-05-23T15:51:06.134Z,1.20
2019-05-23T15:53:45.071Z,1.30
2019-05-23T15:56:27.547Z,1.10
2019-05-23T15:58:49.913Z,1.33
2019-05-23T16:01:20.161Z,1.40
2019-05-23T16:03:53.333Z,1.53
2019-05-23T16:06:24.025Z,1.57
2019-05-23T16:08:52.845Z,1.30
2019-05-23T16:11:21.659Z,1.07
2019-05-23T16:13:50.237Z,1.50
2019-05-23T16:16:18.848Z,1.10
2019-05-23T16:18:48.550Z,1.40
2019-05-23T16:21:17.776Z,1.30
2019-05-23T16:23:46.517Z,1.40
2019-05-23T16:26:15.179Z,1.00
2019-05-23T16:28:43.791Z,1.00
2019-05-23T16:31:12.453Z,1.50
2019-05-23T16:33:41.037Z,1.60
2019-05-23T16:36:09.777Z,1.20
2019-05-23T16:38:38.396Z,1.50
2019-05-23T16:41:09.156Z,1.27
2019-05-23T16:43:37.379Z,1.00
2019-05-23T16:46:05.923Z,1.60
2019-05-23T16:48:35.302Z,1.40
2019-05-23T16:51:06.727Z,1.80
2019-05-23T16:53:36.592Z,1.10
2019-05-23T16:56:07.068Z,1.03
2019-05-23T16:58:43.283Z,1.13
2019-05-23T17:01:24.609Z,1.43
2019-05-23T17:04:07.104Z,1.30
2019-05-23T17:06:46.661Z,1.27
2019-05-23T17:09:23.061Z,1.43
2019-05-23T17:11:59.275Z,1.17
2019-05-23T17:14:35.782Z,1.53
2019-05-23T17:17:15.115Z,1.27
2019-05-23T17:19:45.647Z,1.10
2019-05-23T17:22:30.967Z,1.13
2019-05-23T17:25:05.243Z,1.43
2019-05-23T17:27:41.333Z,1.17
2019-05-23T17:30:21.085Z,1.10
2019-05-23T17:32:50.612Z,1.43
2019-05-23T17:35:19.232Z,1.20
2019-05-23T17:37:47.903Z,1.30
2019-05-23T17:40:25.033Z,1.60
2019-05-23T17:42:46.917Z,1.30
2019-05-23T17:45:16.099Z,1.40
2019-05-23T17:47:44.685Z,1.20
2019-05-23T17:50:13.442Z,1.30
2019-05-23T17:52:42.157Z,1.20
2019-05-23T17:55:12.504Z,3.90
2019-05-23T17:57:41.368Z,1.30
2019-05-23T18:00:11.938Z,1.53
2019-05-23T18:02:40.667Z,1.10
2019-05-23T18:05:09.835Z,1.03
2019-05-23T18:07:40.257Z,1.20
2019-05-23T18:10:11.309Z,1.20
2019-05-23T18:12:40.256Z,1.17
2019-05-23T18:15:11.414Z,1.40
2019-05-23T18:17:40.211Z,1.30
2019-05-23T18:20:09.623Z,1.00
2019-05-23T18:22:38.722Z,1.10
2019-05-23T18:25:09.494Z,1.80
2019-05-23T18:27:38.567Z,1.57
2019-05-23T18:30:09.671Z,1.73
2019-05-23T18:32:39.740Z,1.97
2019-05-23T18:35:10.741Z,1.63
2019-05-23T18:37:39.380Z,1.60
2019-05-23T18:40:08.276Z,1.67
2019-05-23T18:42:36.936Z,1.63
2019-05-23T18:45:09.428Z,2.10
2019-05-23T18:47:41.117Z,1.50
2019-05-23T18:50:11.589Z,1.27
2019-05-23T18:52:40.443Z,1.70
2019-05-23T18:55:10.383Z,1.77
2019-05-23T18:57:39.155Z,1.83
2019-05-23T19:00:09.077Z,1.67
2019-05-23T19:02:39.876Z,1.63
2019-05-23T19:05:11.414Z,1.60
2019-05-23T19:07:43.374Z,2.00
2019-05-23T19:10:14.881Z,2.17
2019-05-23T19:12:44.341Z,2.03
2019-05-23T19:15:14.866Z,1.80
2019-05-23T19:17:43.686Z,3.03
2019-05-23T19:20:12.765Z,1.90
2019-05-23T19:22:42.654Z,2.23
2019-05-23T19:25:12.163Z,2.90
2019-05-23T19:27:40.825Z,2.00
2019-05-23T19:30:13.058Z,1.97
2019-05-23T19:32:41.687Z,2.43
2019-05-23T19:35:12.723Z,2.00
2019-05-23T19:37:41.779Z,1.70
2019-05-23T19:40:12.553Z,2.20
2019-05-23T19:42:45.087Z,1.73
2019-05-23T19:45:14.525Z,2.10
2019-05-23T19:47:44.792Z,2.00
2019-05-23T19:50:16.021Z,1.87
2019-05-23T19:52:45.582Z,2.40
2019-05-23T19:55:23.374Z,2.33
2019-05-23T19:57:55.202Z,2.43
2019-05-23T20:00:25.577Z,2.03
2019-05-23T20:02:58.623Z,2.50
2019-05-23T20:05:32.102Z,3.77
2019-05-23T20:08:03.040Z,3.00
2019-05-23T20:10:32.881Z,2.77
2019-05-23T20:13:03.529Z,3.70
2019-05-23T20:15:33.225Z,4.00
2019-05-23T20:18:02.942Z,2.53
2019-05-23T20:20:37.270Z,2.90
2019-05-23T20:23:06.423Z,2.57
2019-05-23T20:25:35.680Z,2.60
2019-05-23T20:28:04.984Z,2.70
2019-05-23T20:30:44.196Z,2.57
2019-05-23T20:33:15.051Z,2.13
2019-05-23T20:35:45.496Z,3.10
2019-05-23T20:38:15.647Z,2.73
2019-05-23T20:40:44.303Z,2.80
2019-05-23T20:43:12.987Z,2.63
2019-05-23T20:45:41.688Z,2.53
2019-05-23T20:48:10.698Z,2.70
2019-05-23T20:50:58.658Z,2.20
2019-05-23T20:53:27.250Z,2.43
2019-05-23T20:55:55.863Z,2.40
2019-05-23T20:58:24.435Z,2.73
2019-05-23T21:00:57.275Z,3.00
2019-05-23T21:03:27.385Z,2.53
2019-05-23T21:05:56.106Z,3.23
2019-05-23T21:08:24.730Z,3.00
2019-05-23T21:10:53.374Z,2.70
2019-05-23T21:13:22.106Z,3.00
2019-05-23T21:15:50.836Z,2.50
2019-05-23T21:18:19.545Z,3.30
2019-05-23T21:20:48.141Z,3.20
2019-05-23T21:23:16.740Z,3.33
2019-05-23T21:25:47.201Z,3.90
2019-05-23T21:28:15.778Z,3.47
2019-05-23T21:30:44.365Z,3.77
2019-05-23T21:33:12.855Z,4.10
2019-05-23T21:35:41.480Z,8.57
2019-05-23T21:38:10.420Z,3.60
2019-05-23T21:40:41.505Z,3.70
2019-05-23T21:43:10.146Z,3.77
2019-05-23T21:45:38.853Z,3.57
2019-05-23T21:48:07.619Z,3.00
2019-05-23T21:50:36.166Z,3.57
2019-05-23T21:53:04.840Z,3.40
2019-05-23T21:55:43.752Z,3.40
2019-05-23T21:58:14.114Z,3.67
2019-05-23T22:01:07.772Z,4.27
2019-05-23T22:03:56.060Z,3.27
2019-05-23T22:06:35.807Z,3.37
2019-05-23T22:09:07.303Z,3.10
2019-05-23T22:11:36.098Z,3.27
2019-05-23T22:14:05.577Z,3.00
2019-05-23T22:16:34.184Z,2.97
2019-05-23T22:19:03.976Z,3.23
2019-05-23T22:21:32.634Z,3.60
2019-05-23T22:24:01.238Z,3.47
2019-05-23T22:26:31.400Z,3.10
2019-05-23T22:28:59.932Z,3.40
2019-05-23T22:31:28.625Z,3.40
2019-05-23T22:34:17.770Z,3.77
2019-05-23T22:36:46.863Z,3.40
2019-05-23T22:39:15.481Z,4.23
2019-05-23T22:41:43.980Z,3.50
2019-05-23T22:44:13.017Z,3.20
2019-05-23T22:46:42.383Z,3.50
2019-05-23T22:49:12.550Z,3.43
2019-05-23T22:51:41.112Z,3.50
2019-05-23T22:54:09.710Z,3.87
2019-05-23T22:56:38.226Z,4.13
2019-05-23T22:59:06.910Z,3.53
2019-05-23T23:01:35.879Z,3.70
2019-05-23T23:04:04.412Z,3.90
2019-05-23T23:06:33.284Z,3.83
2019-05-23T23:09:01.851Z,3.80
2019-05-23T23:11:30.333Z,3.53
2019-05-23T23:13:58.896Z,3.63
2019-05-23T23:16:27.381Z,3.83
2019-05-23T23:18:56.035Z,3.50
2019-05-23T23:21:24.735Z,3.83
2019-05-23T23:23:53.244Z,3.97
2019-05-23T23:26:21.783Z,3.93
2019-05-23T23:28:50.282Z,4.20
2019-05-23T23:31:18.782Z,4.10
2019-05-23T23:33:47.367Z,3.90
2019-05-23T23:36:15.904Z,3.40
2019-05-23T23:38:44.772Z,4.27
2019-05-23T23:41:13.545Z,4.27
2019-05-23T23:43:58.157Z,3.97
2019-05-23T23:46:31.736Z,3.60
2019-05-23T23:49:18.622Z,5.00
2019-05-23T23:52:05.241Z,4.47
2019-05-23T23:54:51.944Z,4.77
2019-05-23T23:57:38.427Z,4.50
